sensor_id;sensor_type;location;lat;lon;timestamp;temperature;humidity
47779;DHT22;33538;48.432;11.350;2023-12-14T00:00:56;6.90;99.90
47779;DHT22;33538;48.432;11.350;2023-12-14T00:03:24;6.90;99.90
47779;DHT22;33538;48.432;11.350;2023-12-14T00:05:50;6.90;99.90
47779;DHT22;33538;48.432;11.350;2023-12-14T00:08:17;6.90;99.90
47779;DHT22;33538;48.432;11.350;2023-12-14T00:10:44;6.90;99.90
47779;DHT22;33538;48.432;11.350;2023-12-14T00:13:11;6.90;99.90
47779;DHT22;33538;48.432;11.350;2023-12-14T00:15:38;6.90;99.90
47779;DHT22;33538;48.432;11.350;2023-12-14T00:18:04;6.90;99.90
47779;DHT22;33538;48.432;11.350;2023-12-14T00:20:33;6.90;99.90
47779;DHT22;33538;48.432;11.350;2023-12-14T00:22:59;7.00;99.90
47779;DHT22;33538;48.432;11.350;2023-12-14T00:25:26;6.90;99.90
47779;DHT22;33538;48.432;11.350;2023-12-14T00:27:53;7.00;99.90
47779;DHT22;33538;48.432;11.350;2023-12-14T00:30:20;7.00;99.90
47779;DHT22;33538;48.432;11.350;2023-12-14T00:32:47;6.90;99.90
47779;DHT22;33538;48.432;11.350;2023-12-14T00:35:14;6.90;99.90
47779;DHT22;33538;48.432;11.350;2023-12-14T00:37:42;7.00;99.90
47779;DHT22;33538;48.432;11.350;2023-12-14T00:40:10;6.90;99.90
47779;DHT22;33538;48.432;11.350;2023-12-14T00:42:37;6.90;99.90
47779;DHT22;33538;48.432;11.350;2023-12-14T00:45:04;6.90;99.90
47779;DHT22;33538;48.432;11.350;2023-12-14T00:47:31;7.00;99.90
47779;DHT22;33538;48.432;11.350;2023-12-14T00:49:58;6.90;99.90
47779;DHT22;33538;48.432;11.350;2023-12-14T00:52:25;6.90;99.90
47779;DHT22;33538;48.432;11.350;2023-12-14T00:54:53;6.90;99.90
47779;DHT22;33538;48.432;11.350;2023-12-14T00:57:20;6.90;99.90
47779;DHT22;33538;48.432;11.350;2023-12-14T00:59:46;6.90;99.90
47779;DHT22;33538;48.432;11.350;2023-12-14T01:02:13;6.90;99.90
47779;DHT22;33538;48.432;11.350;2023-12-14T01:04:40;6.90;99.90
47779;DHT22;33538;48.432;11.350;2023-12-14T01:07:07;6.90;99.90
47779;DHT22;33538;48.432;11.350;2023-12-14T01:09:34;6.90;99.90
47779;DHT22;33538;48.432;11.350;2023-12-14T01:12:03;6.90;99.90
47779;DHT22;33538;48.432;11.350;2023-12-14T01:14:29;6.90;99.90
47779;DHT22;33538;48.432;11.350;2023-12-14T01:16:56;6.90;99.90
47779;DHT22;33538;48.432;11.350;2023-12-14T01:19:23;6.90;99.90
47779;DHT22;33538;48.432;11.350;2023-12-14T01:21:50;6.90;99.90
47779;DHT22;33538;48.432;11.350;2023-12-14T01:24:16;6.90;99.90
47779;DHT22;33538;48.432;11.350;2023-12-14T01:26:43;6.90;99.90
47779;DHT22;33538;48.432;11.350;2023-12-14T01:29:11;6.90;99.90
47779;DHT22;33538;48.432;11.350;2023-12-14T01:31:38;6.90;99.90
47779;DHT22;33538;48.432;11.350;2023-12-14T01:34:05;6.90;99.90
47779;DHT22;33538;48.432;11.350;2023-12-14T01:36:32;6.90;99.90
47779;DHT22;33538;48.432;11.350;2023-12-14T01:38:59;6.90;99.90
47779;DHT22;33538;48.432;11.350;2023-12-14T01:41:25;6.90;99.90
47779;DHT22;33538;48.432;11.350;2023-12-14T01:43:52;6.90;99.90
47779;DHT22;33538;48.432;11.350;2023-12-14T01:46:20;6.80;99.90
47779;DHT22;33538;48.432;11.350;2023-12-14T01:48:47;6.90;99.90
47779;DHT22;33538;48.432;11.350;2023-12-14T01:51:14;6.90;99.90
47779;DHT22;33538;48.432;11.350;2023-12-14T01:53:41;6.90;99.90
47779;DHT22;33538;48.432;11.350;2023-12-14T01:56:08;6.90;99.90
47779;DHT22;33538;48.432;11.350;2023-12-14T01:58:35;6.90;99.90
47779;DHT22;33538;48.432;11.350;2023-12-14T02:01:05;6.80;99.90
47779;DHT22;33538;48.432;11.350;2023-12-14T02:03:36;6.80;99.90
47779;DHT22;33538;48.432;11.350;2023-12-14T02:06:10;6.90;99.90
47779;DHT22;33538;48.432;11.350;2023-12-14T02:08:37;6.80;99.90
47779;DHT22;33538;48.432;11.350;2023-12-14T02:11:03;6.80;99.90
47779;DHT22;33538;48.432;11.350;2023-12-14T02:13:30;6.80;99.90
47779;DHT22;33538;48.432;11.350;2023-12-14T02:15:57;6.80;99.90
47779;DHT22;33538;48.432;11.350;2023-12-14T02:18:24;6.80;99.90
47779;DHT22;33538;48.432;11.350;2023-12-14T02:20:52;6.80;99.90
47779;DHT22;33538;48.432;11.350;2023-12-14T02:23:20;6.80;99.90
47779;DHT22;33538;48.432;11.350;2023-12-14T02:25:47;6.80;99.90
47779;DHT22;33538;48.432;11.350;2023-12-14T02:28:14;6.80;99.90
47779;DHT22;33538;48.432;11.350;2023-12-14T02:30:41;6.80;99.90
47779;DHT22;33538;48.432;11.350;2023-12-14T02:33:08;6.80;99.90
47779;DHT22;33538;48.432;11.350;2023-12-14T02:35:35;6.80;99.90
47779;DHT22;33538;48.432;11.350;2023-12-14T02:38:01;6.80;99.90
47779;DHT22;33538;48.432;11.350;2023-12-14T02:40:30;6.80;99.90
47779;DHT22;33538;48.432;11.350;2023-12-14T02:42:56;6.80;99.90
47779;DHT22;33538;48.432;11.350;2023-12-14T02:45:23;6.80;99.90
47779;DHT22;33538;48.432;11.350;2023-12-14T02:47:50;6.80;99.90
47779;DHT22;33538;48.432;11.350;2023-12-14T02:50:17;6.80;99.90
47779;DHT22;33538;48.432;11.350;2023-12-14T02:52:44;6.70;99.90
47779;DHT22;33538;48.432;11.350;2023-12-14T02:55:10;6.80;99.90
47779;DHT22;33538;48.432;11.350;2023-12-14T02:57:39;6.80;99.90
47779;DHT22;33538;48.432;11.350;2023-12-14T03:00:07;6.80;99.90
47779;DHT22;33538;48.432;11.350;2023-12-14T03:02:34;6.70;99.90
47779;DHT22;33538;48.432;11.350;2023-12-14T03:05:01;6.80;99.90
47779;DHT22;33538;48.432;11.350;2023-12-14T03:07:28;6.80;99.90
47779;DHT22;33538;48.432;11.350;2023-12-14T03:09:55;6.80;99.90
47779;DHT22;33538;48.432;11.350;2023-12-14T03:12:22;6.70;99.90
47779;DHT22;33538;48.432;11.350;2023-12-14T03:14:50;6.70;99.90
47779;DHT22;33538;48.432;11.350;2023-12-14T03:17:17;6.70;99.90
47779;DHT22;33538;48.432;11.350;2023-12-14T03:19:44;6.70;99.90
47779;DHT22;33538;48.432;11.350;2023-12-14T03:22:10;6.70;99.90
47779;DHT22;33538;48.432;11.350;2023-12-14T03:24:37;6.70;99.90
47779;DHT22;33538;48.432;11.350;2023-12-14T03:27:05;6.70;99.90
47779;DHT22;33538;48.432;11.350;2023-12-14T03:29:31;6.70;99.90
47779;DHT22;33538;48.432;11.350;2023-12-14T03:32:00;6.70;99.90
47779;DHT22;33538;48.432;11.350;2023-12-14T03:34:26;6.70;99.90
47779;DHT22;33538;48.432;11.350;2023-12-14T03:36:53;6.80;99.90
47779;DHT22;33538;48.432;11.350;2023-12-14T03:39:20;6.80;99.90
47779;DHT22;33538;48.432;11.350;2023-12-14T03:41:47;6.70;99.90
47779;DHT22;33538;48.432;11.350;2023-12-14T03:44:14;6.70;99.90
47779;DHT22;33538;48.432;11.350;2023-12-14T03:46:40;6.80;99.90
47779;DHT22;33538;48.432;11.350;2023-12-14T03:49:09;6.70;99.90
47779;DHT22;33538;48.432;11.350;2023-12-14T03:51:36;6.70;99.90
47779;DHT22;33538;48.432;11.350;2023-12-14T03:54:02;6.70;99.90
47779;DHT22;33538;48.432;11.350;2023-12-14T03:56:29;6.70;99.90
47779;DHT22;33538;48.432;11.350;2023-12-14T03:58:56;6.70;99.90
47779;DHT22;33538;48.432;11.350;2023-12-14T04:01:23;6.70;99.90
47779;DHT22;33538;48.432;11.350;2023-12-14T04:03:50;6.70;99.90
47779;DHT22;33538;48.432;11.350;2023-12-14T04:06:18;6.70;99.90
47779;DHT22;33538;48.432;11.350;2023-12-14T04:08:45;6.70;99.90
47779;DHT22;33538;48.432;11.350;2023-12-14T04:11:11;6.70;99.90
47779;DHT22;33538;48.432;11.350;2023-12-14T04:13:38;6.70;99.90
47779;DHT22;33538;48.432;11.350;2023-12-14T04:16:06;6.70;99.90
47779;DHT22;33538;48.432;11.350;2023-12-14T04:18:33;6.70;99.90
47779;DHT22;33538;48.432;11.350;2023-12-14T04:21:00;6.70;99.90
47779;DHT22;33538;48.432;11.350;2023-12-14T04:23:28;6.70;99.90
47779;DHT22;33538;48.432;11.350;2023-12-14T04:25:55;6.70;99.90
47779;DHT22;33538;48.432;11.350;2023-12-14T04:28:22;6.70;99.90
47779;DHT22;33538;48.432;11.350;2023-12-14T04:30:48;6.70;99.90
47779;DHT22;33538;48.432;11.350;2023-12-14T04:33:15;6.60;99.90
47779;DHT22;33538;48.432;11.350;2023-12-14T04:35:42;6.60;99.90
47779;DHT22;33538;48.432;11.350;2023-12-14T04:38:09;6.60;99.90
47779;DHT22;33538;48.432;11.350;2023-12-14T04:40:38;6.60;99.90
47779;DHT22;33538;48.432;11.350;2023-12-14T04:43:07;6.50;99.90
47779;DHT22;33538;48.432;11.350;2023-12-14T04:45:34;6.60;99.90
47779;DHT22;33538;48.432;11.350;2023-12-14T04:48:01;6.60;99.90
47779;DHT22;33538;48.432;11.350;2023-12-14T04:50:28;6.60;99.90
47779;DHT22;33538;48.432;11.350;2023-12-14T04:52:54;6.50;99.90
47779;DHT22;33538;48.432;11.350;2023-12-14T04:55:21;6.60;99.90
47779;DHT22;33538;48.432;11.350;2023-12-14T04:57:50;6.60;99.90
47779;DHT22;33538;48.432;11.350;2023-12-14T05:00:17;6.60;99.90
47779;DHT22;33538;48.432;11.350;2023-12-14T05:02:46;6.60;99.90
47779;DHT22;33538;48.432;11.350;2023-12-14T05:05:13;6.60;99.90
47779;DHT22;33538;48.432;11.350;2023-12-14T05:07:40;6.60;99.90
47779;DHT22;33538;48.432;11.350;2023-12-14T05:10:07;6.60;99.90
47779;DHT22;33538;48.432;11.350;2023-12-14T05:12:34;6.50;99.90
47779;DHT22;33538;48.432;11.350;2023-12-14T05:15:04;6.50;99.90
47779;DHT22;33538;48.432;11.350;2023-12-14T05:17:31;6.50;99.90
47779;DHT22;33538;48.432;11.350;2023-12-14T05:19:58;6.50;99.90
47779;DHT22;33538;48.432;11.350;2023-12-14T05:22:25;6.50;99.90
47779;DHT22;33538;48.432;11.350;2023-12-14T05:24:51;6.50;99.90
47779;DHT22;33538;48.432;11.350;2023-12-14T05:27:18;6.50;99.90
47779;DHT22;33538;48.432;11.350;2023-12-14T05:29:45;6.40;99.90
47779;DHT22;33538;48.432;11.350;2023-12-14T05:32:13;6.50;99.90
47779;DHT22;33538;48.432;11.350;2023-12-14T05:34:40;6.50;99.90
47779;DHT22;33538;48.432;11.350;2023-12-14T05:37:07;6.50;99.90
47779;DHT22;33538;48.432;11.350;2023-12-14T05:39:33;6.50;99.90
47779;DHT22;33538;48.432;11.350;2023-12-14T05:42:00;6.40;99.90
47779;DHT22;33538;48.432;11.350;2023-12-14T05:44:27;6.40;99.90
47779;DHT22;33538;48.432;11.350;2023-12-14T05:46:54;6.40;99.90
47779;DHT22;33538;48.432;11.350;2023-12-14T05:49:22;6.40;99.90
47779;DHT22;33538;48.432;11.350;2023-12-14T05:51:49;6.40;99.90
47779;DHT22;33538;48.432;11.350;2023-12-14T05:54:16;6.40;99.90
47779;DHT22;33538;48.432;11.350;2023-12-14T05:56:42;6.40;99.90
47779;DHT22;33538;48.432;11.350;2023-12-14T05:59:09;6.40;99.90
47779;DHT22;33538;48.432;11.350;2023-12-14T06:01:36;6.40;99.90
47779;DHT22;33538;48.432;11.350;2023-12-14T06:04:03;6.40;99.90
47779;DHT22;33538;48.432;11.350;2023-12-14T06:06:32;6.40;99.90
47779;DHT22;33538;48.432;11.350;2023-12-14T06:08:58;6.40;99.90
47779;DHT22;33538;48.432;11.350;2023-12-14T06:11:25;6.40;99.90
47779;DHT22;33538;48.432;11.350;2023-12-14T06:13:52;6.40;99.90
47779;DHT22;33538;48.432;11.350;2023-12-14T06:16:19;6.40;99.90
47779;DHT22;33538;48.432;11.350;2023-12-14T06:18:46;6.50;99.90
47779;DHT22;33538;48.432;11.350;2023-12-14T06:21:13;6.40;99.90
47779;DHT22;33538;48.432;11.350;2023-12-14T06:23:41;6.50;99.90
47779;DHT22;33538;48.432;11.350;2023-12-14T06:26:08;6.50;99.90
47779;DHT22;33538;48.432;11.350;2023-12-14T06:28:35;6.50;99.90
47779;DHT22;33538;48.432;11.350;2023-12-14T06:31:02;6.50;99.90
47779;DHT22;33538;48.432;11.350;2023-12-14T06:33:29;6.50;99.90
47779;DHT22;33538;48.432;11.350;2023-12-14T06:35:55;6.50;99.90
47779;DHT22;33538;48.432;11.350;2023-12-14T06:38:22;6.50;99.90
47779;DHT22;33538;48.432;11.350;2023-12-14T06:40:51;6.50;99.90
47779;DHT22;33538;48.432;11.350;2023-12-14T06:43:18;6.50;99.90
47779;DHT22;33538;48.432;11.350;2023-12-14T06:45:44;6.50;99.90
47779;DHT22;33538;48.432;11.350;2023-12-14T06:48:11;6.50;99.90
47779;DHT22;33538;48.432;11.350;2023-12-14T06:50:38;6.50;99.90
47779;DHT22;33538;48.432;11.350;2023-12-14T06:53:05;6.50;99.90
47779;DHT22;33538;48.432;11.350;2023-12-14T06:55:32;6.50;99.90
47779;DHT22;33538;48.432;11.350;2023-12-14T06:58:00;6.50;99.90
47779;DHT22;33538;48.432;11.350;2023-12-14T07:00:27;6.50;99.90
47779;DHT22;33538;48.432;11.350;2023-12-14T07:02:54;6.50;99.90
47779;DHT22;33538;48.432;11.350;2023-12-14T07:05:21;6.60;99.90
47779;DHT22;33538;48.432;11.350;2023-12-14T07:07:48;6.50;99.90
47779;DHT22;33538;48.432;11.350;2023-12-14T07:10:14;6.60;99.90
47779;DHT22;33538;48.432;11.350;2023-12-14T07:12:41;6.50;99.90
47779;DHT22;33538;48.432;11.350;2023-12-14T07:15:10;6.50;99.90
47779;DHT22;33538;48.432;11.350;2023-12-14T07:17:36;6.50;99.90
47779;DHT22;33538;48.432;11.350;2023-12-14T07:20:04;6.50;99.90
47779;DHT22;33538;48.432;11.350;2023-12-14T07:22:31;6.50;99.90
47779;DHT22;33538;48.432;11.350;2023-12-14T07:24:58;6.50;99.90
47779;DHT22;33538;48.432;11.350;2023-12-14T07:27:26;6.50;99.90
47779;DHT22;33538;48.432;11.350;2023-12-14T07:29:53;6.50;99.90
47779;DHT22;33538;48.432;11.350;2023-12-14T07:32:21;6.50;99.90
47779;DHT22;33538;48.432;11.350;2023-12-14T07:34:48;6.50;99.90
47779;DHT22;33538;48.432;11.350;2023-12-14T07:37:15;6.50;99.90
47779;DHT22;33538;48.432;11.350;2023-12-14T07:39:41;6.50;99.90
47779;DHT22;33538;48.432;11.350;2023-12-14T07:42:08;6.50;99.90
47779;DHT22;33538;48.432;11.350;2023-12-14T07:44:35;6.50;99.90
47779;DHT22;33538;48.432;11.350;2023-12-14T07:47:02;6.50;99.90
47779;DHT22;33538;48.432;11.350;2023-12-14T07:49:30;6.50;99.90
47779;DHT22;33538;48.432;11.350;2023-12-14T07:51:57;6.50;99.90
47779;DHT22;33538;48.432;11.350;2023-12-14T07:54:24;6.50;99.90
47779;DHT22;33538;48.432;11.350;2023-12-14T07:56:51;6.50;99.90
47779;DHT22;33538;48.432;11.350;2023-12-14T07:59:18;6.50;99.90
47779;DHT22;33538;48.432;11.350;2023-12-14T08:01:44;6.50;99.90
47779;DHT22;33538;48.432;11.350;2023-12-14T08:04:11;6.50;99.90
47779;DHT22;33538;48.432;11.350;2023-12-14T08:06:40;6.50;99.90
47779;DHT22;33538;48.432;11.350;2023-12-14T08:09:07;6.50;99.90
47779;DHT22;33538;48.432;11.350;2023-12-14T08:11:34;6.50;99.90
47779;DHT22;33538;48.432;11.350;2023-12-14T08:14:00;6.50;99.90
47779;DHT22;33538;48.432;11.350;2023-12-14T08:16:27;6.50;99.90
47779;DHT22;33538;48.432;11.350;2023-12-14T08:18:54;6.50;99.90
47779;DHT22;33538;48.432;11.350;2023-12-14T08:21:21;6.40;99.90
47779;DHT22;33538;48.432;11.350;2023-12-14T08:23:49;6.50;99.90
47779;DHT22;33538;48.432;11.350;2023-12-14T08:26:16;6.50;99.90
47779;DHT22;33538;48.432;11.350;2023-12-14T08:28:42;6.50;99.90
47779;DHT22;33538;48.432;11.350;2023-12-14T08:31:09;6.50;99.90
47779;DHT22;33538;48.432;11.350;2023-12-14T08:33:36;6.50;99.90
47779;DHT22;33538;48.432;11.350;2023-12-14T08:36:04;6.50;99.90
47779;DHT22;33538;48.432;11.350;2023-12-14T08:38:31;6.50;99.90
47779;DHT22;33538;48.432;11.350;2023-12-14T08:40:59;6.50;99.90
47779;DHT22;33538;48.432;11.350;2023-12-14T08:43:26;6.50;99.90
47779;DHT22;33538;48.432;11.350;2023-12-14T08:45:53;6.50;99.90
47779;DHT22;33538;48.432;11.350;2023-12-14T08:48:20;6.50;99.90
47779;DHT22;33538;48.432;11.350;2023-12-14T08:50:47;6.60;99.90
47779;DHT22;33538;48.432;11.350;2023-12-14T08:53:13;6.50;99.90
47779;DHT22;33538;48.432;11.350;2023-12-14T08:55:40;6.50;99.90
47779;DHT22;33538;48.432;11.350;2023-12-14T08:58:09;6.60;99.90
47779;DHT22;33538;48.432;11.350;2023-12-14T09:00:35;6.50;99.90
47779;DHT22;33538;48.432;11.350;2023-12-14T09:03:02;6.50;99.90
47779;DHT22;33538;48.432;11.350;2023-12-14T09:05:29;6.50;99.90
47779;DHT22;33538;48.432;11.350;2023-12-14T09:07:56;6.60;99.90
47779;DHT22;33538;48.432;11.350;2023-12-14T09:10:23;6.60;99.90
47779;DHT22;33538;48.432;11.350;2023-12-14T09:12:50;6.50;99.90
47779;DHT22;33538;48.432;11.350;2023-12-14T09:15:19;6.60;99.90
47779;DHT22;33538;48.432;11.350;2023-12-14T09:17:45;6.60;99.90
47779;DHT22;33538;48.432;11.350;2023-12-14T09:20:13;6.50;99.90
47779;DHT22;33538;48.432;11.350;2023-12-14T09:22:40;6.50;99.90
47779;DHT22;33538;48.432;11.350;2023-12-14T09:25:08;6.50;99.90
47779;DHT22;33538;48.432;11.350;2023-12-14T09:27:35;6.60;99.90
47779;DHT22;33538;48.432;11.350;2023-12-14T09:30:03;6.60;99.90
47779;DHT22;33538;48.432;11.350;2023-12-14T09:32:31;6.60;99.90
47779;DHT22;33538;48.432;11.350;2023-12-14T09:34:58;6.50;99.90
47779;DHT22;33538;48.432;11.350;2023-12-14T09:37:25;6.60;99.90
47779;DHT22;33538;48.432;11.350;2023-12-14T09:39:52;6.60;99.90
47779;DHT22;33538;48.432;11.350;2023-12-14T09:42:19;6.60;99.90
47779;DHT22;33538;48.432;11.350;2023-12-14T09:44:48;6.60;99.90
47779;DHT22;33538;48.432;11.350;2023-12-14T09:47:15;6.60;99.90
47779;DHT22;33538;48.432;11.350;2023-12-14T09:49:43;6.60;99.90
47779;DHT22;33538;48.432;11.350;2023-12-14T09:52:11;6.60;99.90
47779;DHT22;33538;48.432;11.350;2023-12-14T09:54:39;6.60;99.90
47779;DHT22;33538;48.432;11.350;2023-12-14T09:57:06;6.60;99.90
47779;DHT22;33538;48.432;11.350;2023-12-14T09:59:33;6.60;99.90
47779;DHT22;33538;48.432;11.350;2023-12-14T10:02:17;6.60;99.90
47779;DHT22;33538;48.432;11.350;2023-12-14T10:04:46;6.60;99.90
47779;DHT22;33538;48.432;11.350;2023-12-14T10:07:13;6.60;99.90
47779;DHT22;33538;48.432;11.350;2023-12-14T10:09:42;6.60;99.90
47779;DHT22;33538;48.432;11.350;2023-12-14T10:12:10;6.70;99.90
47779;DHT22;33538;48.432;11.350;2023-12-14T10:14:37;6.70;99.90
47779;DHT22;33538;48.432;11.350;2023-12-14T10:17:18;6.60;99.90
47779;DHT22;33538;48.432;11.350;2023-12-14T10:19:47;6.70;99.90
47779;DHT22;33538;48.432;11.350;2023-12-14T10:22:15;6.70;99.90
47779;DHT22;33538;48.432;11.350;2023-12-14T10:24:43;6.70;99.90
47779;DHT22;33538;48.432;11.350;2023-12-14T10:27:10;6.70;99.90
47779;DHT22;33538;48.432;11.350;2023-12-14T10:29:37;6.70;99.90
47779;DHT22;33538;48.432;11.350;2023-12-14T10:32:05;6.70;99.90
47779;DHT22;33538;48.432;11.350;2023-12-14T10:34:32;6.70;99.90
47779;DHT22;33538;48.432;11.350;2023-12-14T10:37:00;6.70;99.90
47779;DHT22;33538;48.432;11.350;2023-12-14T10:39:31;6.70;99.90
47779;DHT22;33538;48.432;11.350;2023-12-14T10:42:02;6.70;99.90
47779;DHT22;33538;48.432;11.350;2023-12-14T10:44:44;6.70;99.90
47779;DHT22;33538;48.432;11.350;2023-12-14T10:47:31;6.70;99.90
47779;DHT22;33538;48.432;11.350;2023-12-14T10:50:00;6.70;99.90
47779;DHT22;33538;48.432;11.350;2023-12-14T10:52:30;6.80;99.90
47779;DHT22;33538;48.432;11.350;2023-12-14T10:55:02;6.80;99.90
47779;DHT22;33538;48.432;11.350;2023-12-14T10:57:31;6.80;99.90
47779;DHT22;33538;48.432;11.350;2023-12-14T10:59:58;6.80;99.90
47779;DHT22;33538;48.432;11.350;2023-12-14T11:02:26;6.80;99.90
47779;DHT22;33538;48.432;11.350;2023-12-14T11:04:56;6.80;99.90
47779;DHT22;33538;48.432;11.350;2023-12-14T11:07:44;6.80;99.90
47779;DHT22;33538;48.432;11.350;2023-12-14T11:10:11;6.80;99.90
47779;DHT22;33538;48.432;11.350;2023-12-14T11:12:42;6.80;99.90
47779;DHT22;33538;48.432;11.350;2023-12-14T11:15:17;6.80;99.90
47779;DHT22;33538;48.432;11.350;2023-12-14T11:18:24;6.80;99.90
47779;DHT22;33538;48.432;11.350;2023-12-14T11:20:54;6.90;99.90
47779;DHT22;33538;48.432;11.350;2023-12-14T11:23:42;6.90;99.90
47779;DHT22;33538;48.432;11.350;2023-12-14T11:26:10;6.90;99.90
47779;DHT22;33538;48.432;11.350;2023-12-14T11:28:38;6.90;99.90
47779;DHT22;33538;48.432;11.350;2023-12-14T11:31:07;6.90;99.90
47779;DHT22;33538;48.432;11.350;2023-12-14T11:33:37;6.90;99.90
47779;DHT22;33538;48.432;11.350;2023-12-14T11:36:11;6.90;99.90
47779;DHT22;33538;48.432;11.350;2023-12-14T11:38:38;6.90;99.90
47779;DHT22;33538;48.432;11.350;2023-12-14T11:41:05;7.00;99.90
47779;DHT22;33538;48.432;11.350;2023-12-14T11:43:39;7.00;99.90
47779;DHT22;33538;48.432;11.350;2023-12-14T11:46:06;7.00;99.90
47779;DHT22;33538;48.432;11.350;2023-12-14T11:48:33;7.00;99.90
47779;DHT22;33538;48.432;11.350;2023-12-14T11:51:01;7.00;99.90
47779;DHT22;33538;48.432;11.350;2023-12-14T11:53:29;7.00;99.90
47779;DHT22;33538;48.432;11.350;2023-12-14T11:55:56;7.00;99.90
47779;DHT22;33538;48.432;11.350;2023-12-14T11:58:24;7.00;99.90
47779;DHT22;33538;48.432;11.350;2023-12-14T12:00:51;7.00;99.90
47779;DHT22;33538;48.432;11.350;2023-12-14T12:03:19;7.00;99.90
47779;DHT22;33538;48.432;11.350;2023-12-14T12:05:48;7.00;99.90
47779;DHT22;33538;48.432;11.350;2023-12-14T12:08:20;7.00;99.90
47779;DHT22;33538;48.432;11.350;2023-12-14T12:10:48;7.00;99.90
47779;DHT22;33538;48.432;11.350;2023-12-14T12:13:16;7.00;99.90
47779;DHT22;33538;48.432;11.350;2023-12-14T12:15:44;7.00;99.90
47779;DHT22;33538;48.432;11.350;2023-12-14T12:18:12;7.00;99.90
47779;DHT22;33538;48.432;11.350;2023-12-14T12:20:40;7.00;99.90
47779;DHT22;33538;48.432;11.350;2023-12-14T12:23:07;7.00;99.90
47779;DHT22;33538;48.432;11.350;2023-12-14T12:25:36;7.00;99.90
47779;DHT22;33538;48.432;11.350;2023-12-14T12:28:03;7.00;99.90
47779;DHT22;33538;48.432;11.350;2023-12-14T12:30:30;7.00;99.90
47779;DHT22;33538;48.432;11.350;2023-12-14T12:32:57;7.00;99.90
47779;DHT22;33538;48.432;11.350;2023-12-14T12:35:24;7.00;99.90
47779;DHT22;33538;48.432;11.350;2023-12-14T12:37:51;7.00;99.90
47779;DHT22;33538;48.432;11.350;2023-12-14T12:40:18;7.00;99.90
47779;DHT22;33538;48.432;11.350;2023-12-14T12:42:47;7.00;99.90
47779;DHT22;33538;48.432;11.350;2023-12-14T12:45:14;7.00;99.90
47779;DHT22;33538;48.432;11.350;2023-12-14T12:47:41;7.00;99.90
47779;DHT22;33538;48.432;11.350;2023-12-14T12:50:08;7.10;99.90
47779;DHT22;33538;48.432;11.350;2023-12-14T12:52:35;7.00;99.90
47779;DHT22;33538;48.432;11.350;2023-12-14T12:55:03;7.10;99.90
47779;DHT22;33538;48.432;11.350;2023-12-14T12:57:29;7.00;99.90
47779;DHT22;33538;48.432;11.350;2023-12-14T12:59:58;7.10;99.90
47779;DHT22;33538;48.432;11.350;2023-12-14T13:02:24;7.10;99.90
47779;DHT22;33538;48.432;11.350;2023-12-14T13:04:51;7.10;99.90
47779;DHT22;33538;48.432;11.350;2023-12-14T13:07:18;7.10;99.90
47779;DHT22;33538;48.432;11.350;2023-12-14T13:09:45;7.00;99.90
47779;DHT22;33538;48.432;11.350;2023-12-14T13:12:12;7.10;99.90
47779;DHT22;33538;48.432;11.350;2023-12-14T13:14:39;7.10;99.90
47779;DHT22;33538;48.432;11.350;2023-12-14T13:17:07;7.10;99.90
47779;DHT22;33538;48.432;11.350;2023-12-14T13:19:35;7.10;99.90
47779;DHT22;33538;48.432;11.350;2023-12-14T13:22:02;7.10;99.90
47779;DHT22;33538;48.432;11.350;2023-12-14T13:24:29;7.10;99.90
47779;DHT22;33538;48.432;11.350;2023-12-14T13:26:56;7.10;99.90
47779;DHT22;33538;48.432;11.350;2023-12-14T13:29:22;7.10;99.90
47779;DHT22;33538;48.432;11.350;2023-12-14T13:31:49;7.10;99.90
47779;DHT22;33538;48.432;11.350;2023-12-14T13:34:17;7.00;99.90
47779;DHT22;33538;48.432;11.350;2023-12-14T13:36:44;7.10;99.90
47779;DHT22;33538;48.432;11.350;2023-12-14T13:39:11;7.10;99.90
47779;DHT22;33538;48.432;11.350;2023-12-14T13:41:38;7.00;99.90
47779;DHT22;33538;48.432;11.350;2023-12-14T13:44:16;7.10;99.90
47779;DHT22;33538;48.432;11.350;2023-12-14T13:46:43;7.10;99.90
47779;DHT22;33538;48.432;11.350;2023-12-14T13:49:10;7.10;99.90
47779;DHT22;33538;48.432;11.350;2023-12-14T13:51:38;7.10;99.90
47779;DHT22;33538;48.432;11.350;2023-12-14T13:54:05;7.10;99.90
47779;DHT22;33538;48.432;11.350;2023-12-14T13:56:32;7.10;99.90
47779;DHT22;33538;48.432;11.350;2023-12-14T13:58:59;7.10;99.90
47779;DHT22;33538;48.432;11.350;2023-12-14T14:01:26;7.10;99.90
47779;DHT22;33538;48.432;11.350;2023-12-14T14:03:53;7.10;99.90
47779;DHT22;33538;48.432;11.350;2023-12-14T14:06:20;7.00;99.90
47779;DHT22;33538;48.432;11.350;2023-12-14T14:08:48;7.10;99.90
47779;DHT22;33538;48.432;11.350;2023-12-14T14:11:15;7.00;99.90
47779;DHT22;33538;48.432;11.350;2023-12-14T14:13:41;7.10;99.90
47779;DHT22;33538;48.432;11.350;2023-12-14T14:16:08;7.10;99.90
47779;DHT22;33538;48.432;11.350;2023-12-14T14:18:35;7.10;99.90
47779;DHT22;33538;48.432;11.350;2023-12-14T14:21:03;7.10;99.90
47779;DHT22;33538;48.432;11.350;2023-12-14T14:23:30;7.10;99.90
47779;DHT22;33538;48.432;11.350;2023-12-14T14:25:58;7.10;99.90
47779;DHT22;33538;48.432;11.350;2023-12-14T14:28:25;7.10;99.90
47779;DHT22;33538;48.432;11.350;2023-12-14T14:30:52;7.10;99.90
47779;DHT22;33538;48.432;11.350;2023-12-14T14:33:19;7.10;99.90
47779;DHT22;33538;48.432;11.350;2023-12-14T14:35:46;7.10;99.90
47779;DHT22;33538;48.432;11.350;2023-12-14T14:38:14;7.10;99.90
47779;DHT22;33538;48.432;11.350;2023-12-14T14:40:41;7.10;99.90
47779;DHT22;33538;48.432;11.350;2023-12-14T14:43:10;7.10;99.90
47779;DHT22;33538;48.432;11.350;2023-12-14T14:45:37;7.10;99.90
47779;DHT22;33538;48.432;11.350;2023-12-14T14:48:04;7.10;99.90
47779;DHT22;33538;48.432;11.350;2023-12-14T14:50:31;7.10;99.90
47779;DHT22;33538;48.432;11.350;2023-12-14T14:52:58;7.10;99.90
47779;DHT22;33538;48.432;11.350;2023-12-14T14:55:25;7.10;99.90
47779;DHT22;33538;48.432;11.350;2023-12-14T14:57:52;7.10;99.90
47779;DHT22;33538;48.432;11.350;2023-12-14T15:00:20;7.10;99.90
47779;DHT22;33538;48.432;11.350;2023-12-14T15:02:47;7.10;99.90
47779;DHT22;33538;48.432;11.350;2023-12-14T15:05:14;7.00;99.90
47779;DHT22;33538;48.432;11.350;2023-12-14T15:07:41;7.00;99.90
47779;DHT22;33538;48.432;11.350;2023-12-14T15:10:08;7.00;99.90
47779;DHT22;33538;48.432;11.350;2023-12-14T15:12:35;7.00;99.90
47779;DHT22;33538;48.432;11.350;2023-12-14T15:15:03;7.00;99.90
47779;DHT22;33538;48.432;11.350;2023-12-14T15:17:34;7.00;99.90
47779;DHT22;33538;48.432;11.350;2023-12-14T15:20:01;7.00;99.90
47779;DHT22;33538;48.432;11.350;2023-12-14T15:22:28;7.00;99.90
47779;DHT22;33538;48.432;11.350;2023-12-14T15:24:55;7.00;99.90
47779;DHT22;33538;48.432;11.350;2023-12-14T15:27:22;7.00;99.90
47779;DHT22;33538;48.432;11.350;2023-12-14T15:29:48;6.90;99.90
47779;DHT22;33538;48.432;11.350;2023-12-14T15:32:15;7.00;99.90